Strona główna
METAR-TAF:

METAR-TAF

Lotnisko :

Cranfield, Anglia

Szerokość geograficzna: 52-04N, Długość geograficzna: 000-37W, wysokość: 111 m

Aktualna obserwacja pogody

Raport powstał 11 godziny i 46 minut temu, godzina 15:20 UTC
Wiatr 9 kt od zachód
Temperatura 11°C
Wilgotność 54%
Ciśnienie 1017 hPa
Widzialność 10 km lub więcej
Rozproszone chmury na wysokości 4600 ft

METAR: EGTC 031520Z 26009KT 9999 SCT046 11/02 Q1017

czas: 04:06 (03:06 UTC)

Prognoza

Raport powstał 16 godziny i 4 minut temu, godzina 11:02 UTC
Prognoza ważna od 03 godzina 12 UTC do 03 godzina 16 UTC
Wiatr 6 kt od zachód
Widzialność 10 km lub więcej
Przerywane chmury na wysokości 4500 ft

TAF: EGTC 031102Z 0312/0316 26006KT 9999 BKN045

Obserwacja i prognoza pogody dla ponad 4000 lotnisk (raport METAR i TAF).

Dostępne stacje oznaczono żółtymi i czerwonymi punktami na mapie.

Najedź kursorem aby zobaczyć nazwę stacji.

Kliknij aby zobaczyć obserwacje i prognozy pogody.

Aby zmienić mapę: kliknij na zielony przycisk z czarnym krzyżykiem, aby powiększyć; na zielony przycisk z myślnikiem, aby pomniejszyć; na zielone strzałki, aby przejść do map sąsiednich.


METAR-TAF: